createdAt,value
2023-02-19T05:00:36.444Z,0.00
2023-02-19T05:01:36.376Z,0.00
2023-02-19T05:02:36.337Z,0.00
2023-02-19T05:03:36.327Z,0.00
2023-02-19T05:04:36.358Z,0.00
2023-02-19T05:05:36.313Z,0.00
2023-02-19T05:06:36.322Z,0.00
2023-02-19T05:07:36.282Z,0.00
2023-02-19T05:08:36.269Z,0.00
2023-02-19T05:09:36.275Z,0.00
2023-02-19T05:10:36.246Z,0.00
2023-02-19T05:11:41.279Z,0.00
2023-02-19T05:12:36.226Z,0.00
2023-02-19T05:13:36.234Z,0.00
2023-02-19T05:14:36.261Z,0.00
2023-02-19T05:15:36.256Z,0.00
2023-02-19T05:16:36.193Z,0.00
2023-02-19T05:17:36.221Z,0.00
2023-02-19T05:18:36.173Z,0.00
2023-02-19T05:19:36.149Z,0.00
2023-02-19T05:20:36.143Z,0.00
2023-02-19T05:21:36.144Z,0.00
2023-02-19T05:22:41.151Z,0.00
2023-02-19T05:23:36.106Z,0.00
2023-02-19T05:24:36.124Z,0.00
2023-02-19T05:25:36.112Z,0.00
2023-02-19T05:26:36.097Z,0.00
2023-02-19T05:27:36.060Z,0.00
2023-02-19T05:28:36.062Z,0.00
2023-02-19T05:29:36.037Z,0.00
2023-02-19T05:30:36.052Z,0.00
2023-02-19T05:31:36.144Z,0.00
2023-02-19T05:32:36.008Z,0.00
2023-02-19T05:33:41.017Z,0.00
2023-02-19T05:34:36.006Z,0.00
2023-02-19T05:35:35.971Z,0.00
2023-02-19T05:36:35.988Z,0.00
2023-02-19T05:37:35.953Z,0.00
2023-02-19T05:38:35.948Z,0.00
2023-02-19T05:39:35.929Z,0.00
2023-02-19T05:40:35.917Z,0.00
2023-02-19T05:41:35.915Z,0.00
2023-02-19T05:42:35.906Z,0.00
2023-02-19T05:43:35.937Z,0.00
2023-02-19T05:44:40.900Z,0.00
2023-02-19T05:45:35.913Z,0.00
2023-02-19T05:46:35.968Z,0.00
2023-02-19T05:47:35.856Z,0.00
2023-02-19T05:48:35.828Z,0.00
2023-02-19T05:49:35.862Z,0.00
2023-02-19T05:50:37.259Z,0.00
2023-02-19T05:51:35.814Z,0.00
2023-02-19T05:52:35.786Z,0.00
2023-02-19T05:53:35.776Z,0.00
2023-02-19T05:54:35.779Z,0.00
2023-02-19T05:55:40.776Z,0.00
2023-02-19T05:56:35.754Z,0.00
2023-02-19T05:57:35.730Z,0.00
2023-02-19T05:58:35.718Z,0.00
2023-02-19T05:59:35.710Z,0.00
2023-02-19T06:00:35.701Z,0.00
2023-02-19T06:01:35.703Z,0.00
2023-02-19T06:02:35.770Z,0.00
2023-02-19T06:03:35.800Z,0.00
2023-02-19T06:04:35.654Z,4.00
2023-02-19T06:05:35.642Z,4.00
2023-02-19T06:06:40.697Z,4.00
2023-02-19T06:07:35.626Z,4.00
2023-02-19T06:08:35.613Z,4.00
2023-02-19T06:09:35.594Z,8.00
2023-02-19T06:10:35.594Z,8.00
2023-02-19T06:11:35.578Z,8.00
2023-02-19T06:12:35.594Z,12.00
2023-02-19T06:13:35.552Z,12.00
2023-02-19T06:14:35.542Z,12.00
2023-02-19T06:15:35.541Z,16.00
2023-02-19T06:16:35.519Z,20.00
2023-02-19T06:17:40.538Z,16.00
2023-02-19T06:18:35.500Z,20.00
2023-02-19T06:19:35.484Z,28.00
2023-02-19T06:20:35.476Z,28.00
2023-02-19T06:21:35.466Z,36.00
2023-02-19T06:22:35.488Z,40.00
2023-02-19T06:23:35.458Z,52.00
2023-02-19T06:24:35.440Z,60.00
2023-02-19T06:25:35.481Z,64.00
2023-02-19T06:26:35.448Z,72.00
2023-02-19T06:27:35.422Z,84.00
2023-02-19T06:28:40.426Z,96.00
2023-02-19T06:29:35.375Z,100.00
2023-02-19T06:30:35.504Z,112.00
2023-02-19T06:31:35.455Z,132.00
2023-02-19T06:32:35.358Z,144.00
2023-02-19T06:33:35.341Z,152.00
2023-02-19T06:34:35.327Z,156.00
2023-02-19T06:35:35.314Z,156.00
2023-02-19T06:36:35.325Z,156.00
2023-02-19T06:37:35.302Z,156.00
2023-02-19T06:38:35.280Z,168.00
2023-02-19T06:39:40.291Z,196.00
2023-02-19T06:40:35.271Z,220.00
2023-02-19T06:41:35.346Z,228.00
2023-02-19T06:42:35.250Z,232.00
2023-02-19T06:43:35.228Z,224.00
2023-02-19T06:44:35.221Z,236.00
2023-02-19T06:45:35.220Z,240.00
2023-02-19T06:46:35.234Z,236.00
2023-02-19T06:47:35.210Z,236.00
2023-02-19T06:48:35.195Z,228.00
2023-02-19T06:49:35.164Z,256.00
2023-02-19T06:50:40.171Z,240.00
2023-02-19T06:51:35.146Z,244.00
2023-02-19T06:52:35.140Z,256.00
2023-02-19T06:53:35.130Z,272.00
2023-02-19T06:54:35.104Z,236.00
2023-02-19T06:55:35.114Z,236.00
2023-02-19T06:56:35.085Z,272.00
2023-02-19T06:57:35.097Z,276.00
2023-02-19T06:58:35.070Z,272.00
2023-02-19T06:59:35.062Z,276.00
2023-02-19T07:00:35.094Z,284.00
2023-02-19T07:01:40.054Z,292.00
2023-02-19T07:02:35.029Z,328.00
2023-02-19T07:03:35.015Z,388.00
2023-02-19T07:04:34.998Z,412.00
2023-02-19T07:05:34.985Z,460.00
2023-02-19T07:06:34.970Z,456.00
2023-02-19T07:07:34.977Z,452.00
2023-02-19T07:08:34.947Z,440.00
2023-02-19T07:09:34.938Z,460.00
2023-02-19T07:10:34.935Z,456.00
2023-02-19T07:11:35.023Z,456.00
2023-02-19T07:12:39.978Z,444.00
2023-02-19T07:13:34.891Z,456.00
2023-02-19T07:14:34.884Z,436.00
2023-02-19T07:15:34.886Z,428.00
2023-02-19T07:16:34.922Z,464.00
2023-02-19T07:17:34.851Z,496.00
2023-02-19T07:18:34.850Z,480.00
2023-02-19T07:19:34.842Z,436.00
2023-02-19T07:20:34.820Z,408.00
2023-02-19T07:21:34.841Z,472.00
2023-02-19T07:22:34.801Z,520.00
2023-02-19T07:23:39.817Z,512.00
2023-02-19T07:24:34.775Z,544.00
2023-02-19T07:25:34.755Z,552.00
2023-02-19T07:26:34.749Z,548.00
2023-02-19T07:27:34.739Z,732.00
2023-02-19T07:28:34.741Z,748.00
2023-02-19T07:29:34.729Z,804.00
2023-02-19T07:30:34.820Z,720.00
2023-02-19T07:31:34.864Z,704.00
2023-02-19T07:32:34.677Z,768.00
2023-02-19T07:33:34.696Z,796.00
2023-02-19T07:34:39.679Z,852.00
2023-02-19T07:35:34.647Z,928.00
2023-02-19T07:36:34.636Z,856.00
2023-02-19T07:37:34.625Z,824.00
2023-02-19T07:38:34.627Z,868.00
2023-02-19T07:39:34.600Z,952.00
2023-02-19T07:40:34.638Z,1040.00
2023-02-19T07:41:34.602Z,1096.00
2023-02-19T07:42:34.579Z,1192.00
2023-02-19T07:43:34.581Z,1236.00
2023-02-19T07:44:34.553Z,1288.00
2023-02-19T07:45:39.589Z,1384.00
2023-02-19T07:46:34.526Z,1456.00
2023-02-19T07:47:34.530Z,1636.00
2023-02-19T07:48:34.528Z,1716.00
2023-02-19T07:49:34.499Z,1976.00
2023-02-19T07:50:34.482Z,2144.00
2023-02-19T07:51:34.515Z,2316.00
2023-02-19T07:52:34.468Z,2520.00
2023-02-19T07:53:34.486Z,2588.00
2023-02-19T07:54:34.450Z,2608.00
2023-02-19T07:55:34.425Z,2672.00
2023-02-19T07:56:39.440Z,2544.00
2023-02-19T07:57:34.433Z,2464.00
2023-02-19T07:58:34.421Z,2280.00
2023-02-19T07:59:34.397Z,2400.00
2023-02-19T08:00:34.370Z,2300.00
2023-02-19T08:01:34.482Z,2616.00
2023-02-19T08:02:34.359Z,2976.00
2023-02-19T08:03:34.447Z,2680.00
2023-02-19T08:04:34.339Z,2168.00
2023-02-19T08:05:34.311Z,1832.00
2023-02-19T08:06:34.308Z,1696.00
2023-02-19T08:07:39.313Z,1608.00
2023-02-19T08:08:34.304Z,1756.00
2023-02-19T08:09:34.330Z,1916.00
2023-02-19T08:10:34.274Z,2120.00
2023-02-19T08:11:34.257Z,1920.00
2023-02-19T08:12:34.241Z,1904.00
2023-02-19T08:13:34.232Z,2104.00
2023-02-19T08:14:34.229Z,2084.00
2023-02-19T08:15:34.204Z,2272.00
2023-02-19T08:16:42.904Z,2476.00
2023-02-19T08:17:35.177Z,2480.00
2023-02-19T08:18:39.188Z,2184.00
2023-02-19T08:19:34.173Z,1960.00
2023-02-19T08:20:34.153Z,2064.00
2023-02-19T08:21:34.485Z,2204.00
2023-02-19T08:22:34.140Z,2388.00
2023-02-19T08:23:34.114Z,2396.00
2023-02-19T08:24:34.142Z,1992.00
2023-02-19T08:25:34.093Z,1724.00
2023-02-19T08:26:34.101Z,1764.00
2023-02-19T08:27:34.103Z,2172.00
2023-02-19T08:28:34.092Z,2416.00
2023-02-19T08:29:39.073Z,2520.00
2023-02-19T08:30:34.199Z,2468.00
2023-02-19T08:31:34.304Z,2868.00
2023-02-19T08:32:34.024Z,3156.00
2023-02-19T08:33:33.993Z,3068.00
2023-02-19T08:34:34.029Z,3500.00
2023-02-19T08:35:34.043Z,3976.00
2023-02-19T08:36:33.969Z,3876.00
2023-02-19T08:37:33.962Z,3504.00
2023-02-19T08:38:33.942Z,3380.00
2023-02-19T08:39:33.950Z,3404.00
2023-02-19T08:40:38.939Z,3400.00
2023-02-19T08:41:33.903Z,3076.00
2023-02-19T08:42:33.901Z,3000.00
2023-02-19T08:43:33.897Z,3180.00
2023-02-19T08:44:33.888Z,3424.00
2023-02-19T08:45:33.888Z,3484.00
2023-02-19T08:46:34.577Z,3524.00
2023-02-19T08:47:33.835Z,3524.00
2023-02-19T08:48:33.838Z,3832.00
2023-02-19T08:49:33.818Z,4056.00
2023-02-19T08:50:33.825Z,3960.00
2023-02-19T08:51:38.829Z,3664.00
2023-02-19T08:52:33.787Z,3532.00
2023-02-19T08:53:33.772Z,3688.00
2023-02-19T08:54:33.897Z,3628.00
2023-02-19T08:55:33.778Z,4060.00
2023-02-19T08:56:33.735Z,4344.00
2023-02-19T08:57:33.814Z,4732.00
2023-02-19T08:58:33.738Z,4672.00
2023-02-19T08:59:33.729Z,4472.00
2023-02-19T09:00:33.715Z,4708.00
2023-02-19T09:01:33.766Z,5248.00
2023-02-19T09:02:38.757Z,5600.00
2023-02-19T09:03:33.664Z,5824.00
2023-02-19T09:04:33.732Z,5660.00
2023-02-19T09:05:33.664Z,5488.00
2023-02-19T09:06:33.751Z,5444.00
2023-02-19T09:07:33.629Z,5956.00
2023-02-19T09:08:33.798Z,6232.00
2023-02-19T09:09:33.593Z,6636.00
2023-02-19T09:10:33.603Z,6936.00
2023-02-19T09:11:33.605Z,6024.00
2023-02-19T09:12:33.589Z,6864.00
2023-02-19T09:13:38.585Z,4208.00
2023-02-19T09:14:33.573Z,3540.00
2023-02-19T09:15:33.679Z,3280.00
2023-02-19T09:16:33.720Z,3068.00
2023-02-19T09:17:33.527Z,3308.00
2023-02-19T09:18:33.526Z,3816.00
2023-02-19T09:19:33.522Z,4864.00
2023-02-19T09:20:33.490Z,5156.00
2023-02-19T09:21:33.457Z,5076.00
2023-02-19T09:22:33.444Z,4680.00
2023-02-19T09:23:33.447Z,4712.00
2023-02-19T09:24:38.458Z,4956.00
2023-02-19T09:25:33.417Z,5376.00
2023-02-19T09:26:33.430Z,6036.00
2023-02-19T09:27:33.393Z,6332.00
2023-02-19T09:28:33.539Z,5584.00
2023-02-19T09:29:33.394Z,3552.00
2023-02-19T09:30:33.412Z,3280.00
2023-02-19T09:31:33.534Z,3444.00
2023-02-19T09:32:34.124Z,3048.00
2023-02-19T09:33:33.370Z,3404.00
2023-02-19T09:34:33.533Z,3980.00
2023-02-19T09:35:38.465Z,4040.00
2023-02-19T09:36:33.375Z,4000.00
2023-02-19T09:37:34.233Z,4352.00
2023-02-19T09:38:33.463Z,4168.00
2023-02-19T09:39:33.268Z,4076.00
2023-02-19T09:40:33.483Z,5056.00
2023-02-19T09:41:33.345Z,6180.00
2023-02-19T09:42:33.243Z,6624.00
2023-02-19T09:43:33.210Z,6528.00
2023-02-19T09:44:33.224Z,6796.00
2023-02-19T09:45:33.242Z,7396.00
2023-02-19T09:46:38.262Z,6972.00
2023-02-19T09:47:33.258Z,6116.00
2023-02-19T09:48:33.258Z,6108.00
2023-02-19T09:49:33.158Z,5956.00
2023-02-19T09:50:34.611Z,6220.00
2023-02-19T09:51:33.179Z,6108.00
2023-02-19T09:52:33.111Z,6788.00
2023-02-19T09:53:33.108Z,8060.00
2023-02-19T09:54:33.092Z,6836.00
2023-02-19T09:55:33.100Z,5412.00
2023-02-19T09:56:33.110Z,5280.00
2023-02-19T09:57:38.124Z,5520.00
2023-02-19T09:58:33.042Z,6056.00
2023-02-19T09:59:33.451Z,6100.00
2023-02-19T10:00:33.036Z,6172.00
2023-02-19T10:01:33.090Z,6292.00
2023-02-19T10:02:33.073Z,6400.00
2023-02-19T10:03:33.006Z,6740.00
2023-02-19T10:04:32.990Z,7120.00
2023-02-19T10:05:32.983Z,7208.00
2023-02-19T10:06:33.058Z,6940.00
2023-02-19T10:07:33.003Z,7296.00
2023-02-19T10:08:38.082Z,7312.00
2023-02-19T10:09:32.954Z,7000.00
2023-02-19T10:10:32.910Z,7120.00
2023-02-19T10:11:32.910Z,6896.00
2023-02-19T10:12:32.892Z,6184.00
2023-02-19T10:13:32.878Z,5436.00
2023-02-19T10:14:32.948Z,5272.00
2023-02-19T10:15:32.854Z,5476.00
2023-02-19T10:16:32.858Z,5492.00
2023-02-19T10:17:32.830Z,5440.00
2023-02-19T10:18:32.874Z,5452.00
2023-02-19T10:19:37.884Z,5720.00
2023-02-19T10:20:32.908Z,5896.00
2023-02-19T10:21:32.859Z,6304.00
2023-02-19T10:22:32.792Z,6648.00
2023-02-19T10:23:32.772Z,7008.00
2023-02-19T10:24:32.753Z,7500.00
2023-02-19T10:25:32.735Z,8012.00
2023-02-19T10:26:32.796Z,7408.00
2023-02-19T10:27:32.741Z,7000.00
2023-02-19T10:28:32.766Z,6840.00
2023-02-19T10:29:32.704Z,6996.00
2023-02-19T10:30:37.869Z,7352.00
2023-02-19T10:31:32.871Z,6896.00
2023-02-19T10:32:32.725Z,6688.00
2023-02-19T10:33:32.844Z,6396.00
2023-02-19T10:34:32.652Z,6036.00
2023-02-19T10:35:32.640Z,7100.00
2023-02-19T10:36:32.657Z,7596.00
2023-02-19T10:37:32.654Z,7832.00
2023-02-19T10:38:32.643Z,7764.00
2023-02-19T10:39:32.583Z,7612.00
2023-02-19T10:40:32.576Z,7220.00
2023-02-19T10:41:37.626Z,6760.00
2023-02-19T10:42:32.582Z,6168.00
2023-02-19T10:43:32.579Z,5404.00
2023-02-19T10:44:32.553Z,5100.00
2023-02-19T10:45:32.551Z,5232.00
2023-02-19T10:46:32.558Z,6120.00
2023-02-19T10:47:32.520Z,7224.00
2023-02-19T10:48:32.488Z,7732.00
2023-02-19T10:49:32.481Z,8500.00
2023-02-19T10:50:32.458Z,9496.00
2023-02-19T10:51:32.449Z,10712.00
2023-02-19T10:52:37.472Z,10488.00
2023-02-19T10:53:32.434Z,10768.00
2023-02-19T10:54:32.461Z,12560.00
2023-02-19T10:55:32.409Z,12648.00
2023-02-19T10:56:32.395Z,16192.00
2023-02-19T10:57:32.406Z,13644.00
2023-02-19T10:58:32.394Z,14400.00
2023-02-19T10:59:32.392Z,14236.00
2023-02-19T11:00:32.359Z,11940.00
2023-02-19T11:01:32.399Z,13316.00
2023-02-19T11:02:32.369Z,12872.00
2023-02-19T11:03:37.348Z,12540.00
2023-02-19T11:04:32.415Z,12892.00
2023-02-19T11:05:32.308Z,12276.00
2023-02-19T11:06:34.894Z,12188.00
2023-02-19T11:07:32.278Z,13656.00
2023-02-19T11:08:32.274Z,13104.00
2023-02-19T11:09:32.253Z,13416.00
2023-02-19T11:10:32.239Z,13196.00
2023-02-19T11:11:32.258Z,12772.00
2023-02-19T11:12:32.543Z,13608.00
2023-02-19T11:13:32.253Z,14388.00
2023-02-19T11:14:37.218Z,24672.00
2023-02-19T11:15:32.229Z,13236.00
2023-02-19T11:16:32.180Z,11836.00
2023-02-19T11:17:32.176Z,10100.00
2023-02-19T11:18:32.190Z,10048.00
2023-02-19T11:19:32.134Z,9684.00
2023-02-19T11:20:32.169Z,8796.00
2023-02-19T11:21:32.214Z,8868.00
2023-02-19T11:22:32.134Z,7936.00
2023-02-19T11:23:32.135Z,8244.00
2023-02-19T11:24:32.080Z,8560.00
2023-02-19T11:25:37.093Z,8608.00
2023-02-19T11:26:32.073Z,8752.00
2023-02-19T11:27:32.069Z,9064.00
2023-02-19T11:28:32.032Z,8884.00
2023-02-19T11:29:32.022Z,8984.00
2023-02-19T11:30:35.259Z,7636.00
2023-02-19T11:31:32.262Z,7404.00
2023-02-19T11:32:32.011Z,7288.00
2023-02-19T11:33:32.108Z,7276.00
2023-02-19T11:34:31.967Z,6668.00
2023-02-19T11:35:31.963Z,6168.00
2023-02-19T11:36:37.005Z,5024.00
2023-02-19T11:37:31.962Z,4872.00
2023-02-19T11:38:31.925Z,5640.00
2023-02-19T11:39:31.914Z,7152.00
2023-02-19T11:40:31.900Z,7472.00
2023-02-19T11:41:31.891Z,6096.00
2023-02-19T11:42:31.889Z,5752.00
2023-02-19T11:43:31.892Z,6348.00
2023-02-19T11:44:31.860Z,8604.00
2023-02-19T11:45:31.866Z,9940.00
2023-02-19T11:46:31.910Z,12676.00
2023-02-19T11:47:36.879Z,10280.00
2023-02-19T11:48:31.848Z,10160.00
2023-02-19T11:49:31.829Z,10524.00
2023-02-19T11:50:31.815Z,10428.00
2023-02-19T11:51:31.784Z,11560.00
2023-02-19T11:52:31.791Z,11044.00
2023-02-19T11:53:31.831Z,10652.00
2023-02-19T11:54:31.746Z,9812.00
2023-02-19T11:55:31.743Z,9488.00
2023-02-19T11:56:31.723Z,10604.00
2023-02-19T11:57:31.730Z,11956.00
2023-02-19T11:58:36.727Z,11692.00
2023-02-19T11:59:31.702Z,11416.00
2023-02-19T12:00:31.674Z,12740.00
2023-02-19T12:01:31.682Z,11168.00
2023-02-19T12:02:31.688Z,10060.00
2023-02-19T12:03:31.648Z,8484.00
2023-02-19T12:04:31.668Z,9424.00
2023-02-19T12:05:31.616Z,9952.00
2023-02-19T12:06:31.602Z,10836.00
2023-02-19T12:07:31.606Z,11312.00
2023-02-19T12:08:31.590Z,11616.00
2023-02-19T12:09:36.601Z,12336.00
2023-02-19T12:10:31.575Z,13564.00
2023-02-19T12:11:31.545Z,14092.00
2023-02-19T12:12:31.537Z,13788.00
2023-02-19T12:13:31.522Z,11324.00
2023-02-19T12:14:31.526Z,11208.00
2023-02-19T12:15:31.498Z,9996.00
2023-02-19T12:16:31.559Z,8684.00
2023-02-19T12:17:31.560Z,6992.00
2023-02-19T12:18:32.689Z,6708.00
2023-02-19T12:19:31.463Z,6996.00
2023-02-19T12:20:36.479Z,7656.00
2023-02-19T12:21:31.438Z,8644.00
2023-02-19T12:22:31.429Z,7436.00
2023-02-19T12:23:31.484Z,6308.00
2023-02-19T12:24:31.425Z,5032.00
2023-02-19T12:25:34.045Z,5104.00
2023-02-19T12:26:31.373Z,4504.00
2023-02-19T12:27:31.407Z,3448.00
2023-02-19T12:28:31.357Z,3112.00
2023-02-19T12:29:31.358Z,3660.00
2023-02-19T12:30:31.365Z,4048.00
2023-02-19T12:31:36.392Z,4392.00
2023-02-19T12:32:31.304Z,5028.00
2023-02-19T12:33:31.332Z,4948.00
2023-02-19T12:34:31.297Z,4280.00
2023-02-19T12:35:31.369Z,3708.00
2023-02-19T12:36:31.265Z,3636.00
2023-02-19T12:37:31.260Z,3660.00
2023-02-19T12:38:31.239Z,2916.00
2023-02-19T12:39:31.243Z,2292.00
2023-02-19T12:40:31.224Z,2232.00
2023-02-19T12:41:31.208Z,3648.00
2023-02-19T12:42:36.223Z,4808.00
2023-02-19T12:43:31.216Z,5792.00
2023-02-19T12:44:31.211Z,5896.00
2023-02-19T12:45:31.177Z,5456.00
2023-02-19T12:46:31.168Z,5048.00
2023-02-19T12:47:31.147Z,4388.00
2023-02-19T12:48:31.171Z,4452.00
2023-02-19T12:49:31.164Z,4544.00
2023-02-19T12:50:31.110Z,4644.00
2023-02-19T12:51:31.104Z,5344.00
2023-02-19T12:52:31.085Z,5860.00
2023-02-19T12:53:36.105Z,5392.00
2023-02-19T12:54:31.082Z,5540.00
2023-02-19T12:55:31.077Z,6248.00
2023-02-19T12:56:31.051Z,6548.00
2023-02-19T12:57:31.045Z,6416.00
2023-02-19T12:58:31.032Z,5720.00
2023-02-19T12:59:31.036Z,6440.00
2023-02-19T13:00:31.029Z,6648.00
2023-02-19T13:01:31.120Z,6564.00
2023-02-19T13:02:31.040Z,6372.00
2023-02-19T13:03:30.985Z,6424.00
2023-02-19T13:04:36.023Z,6096.00
2023-02-19T13:05:30.966Z,5640.00
2023-02-19T13:06:30.935Z,5188.00
2023-02-19T13:07:30.935Z,4792.00
2023-02-19T13:08:33.057Z,4356.00
2023-02-19T13:09:30.911Z,4916.00
2023-02-19T13:10:30.926Z,5676.00
2023-02-19T13:11:30.974Z,6192.00
2023-02-19T13:12:30.913Z,6408.00
2023-02-19T13:13:30.868Z,6284.00
2023-02-19T13:14:30.909Z,6244.00
2023-02-19T13:15:35.908Z,6216.00
2023-02-19T13:16:30.860Z,6000.00
2023-02-19T13:17:30.821Z,6008.00
2023-02-19T13:18:30.840Z,5812.00
2023-02-19T13:19:30.799Z,5812.00
2023-02-19T13:20:30.794Z,6212.00
2023-02-19T13:21:30.843Z,6556.00
2023-02-19T13:22:30.766Z,6864.00
2023-02-19T13:23:30.756Z,6888.00
2023-02-19T13:24:30.852Z,6772.00
2023-02-19T13:25:30.736Z,6836.00
2023-02-19T13:26:35.752Z,6876.00
2023-02-19T13:27:30.713Z,6812.00
2023-02-19T13:28:30.788Z,6884.00
2023-02-19T13:29:30.690Z,6712.00
2023-02-19T13:30:30.694Z,6328.00
2023-02-19T13:31:30.825Z,6488.00
2023-02-19T13:32:30.645Z,7064.00
2023-02-19T13:33:30.648Z,7376.00
2023-02-19T13:34:30.633Z,7360.00
2023-02-19T13:35:31.092Z,6848.00
2023-02-19T13:36:30.636Z,6240.00
2023-02-19T13:37:35.618Z,5988.00
2023-02-19T13:38:30.578Z,5676.00
2023-02-19T13:39:31.179Z,5480.00
2023-02-19T13:40:30.631Z,5448.00
2023-02-19T13:41:30.556Z,5540.00
2023-02-19T13:42:30.602Z,5248.00
2023-02-19T13:43:30.527Z,5024.00
2023-02-19T13:44:30.522Z,4840.00
2023-02-19T13:45:30.542Z,4740.00
2023-02-19T13:46:30.539Z,4560.00
2023-02-19T13:47:30.502Z,4468.00
2023-02-19T13:48:35.509Z,4376.00
2023-02-19T13:49:30.488Z,4248.00
2023-02-19T13:50:30.534Z,4204.00
2023-02-19T13:51:30.452Z,4212.00
2023-02-19T13:52:30.460Z,4340.00
2023-02-19T13:53:30.426Z,4404.00
2023-02-19T13:54:30.402Z,4288.00
2023-02-19T13:55:30.414Z,4356.00
2023-02-19T13:56:30.433Z,4540.00
2023-02-19T13:57:30.378Z,3984.00
2023-02-19T13:58:30.361Z,3512.00
2023-02-19T13:59:35.409Z,4028.00
2023-02-19T14:00:30.376Z,4064.00
2023-02-19T14:01:30.352Z,4264.00
2023-02-19T14:02:30.373Z,3964.00
2023-02-19T14:03:30.332Z,3344.00
2023-02-19T14:04:30.302Z,3336.00
2023-02-19T14:05:30.303Z,3764.00
2023-02-19T14:06:30.328Z,4032.00
2023-02-19T14:07:30.268Z,4088.00
2023-02-19T14:08:30.255Z,4064.00
2023-02-19T14:09:30.243Z,4128.00
2023-02-19T14:10:35.257Z,4292.00
2023-02-19T14:11:30.234Z,4460.00
2023-02-19T14:12:30.223Z,4488.00
2023-02-19T14:13:30.193Z,4320.00
2023-02-19T14:14:30.212Z,4496.00
2023-02-19T14:15:30.290Z,4460.00
2023-02-19T14:16:30.164Z,4008.00
2023-02-19T14:17:30.202Z,3756.00
2023-02-19T14:18:31.997Z,3468.00
2023-02-19T14:19:30.142Z,3236.00
2023-02-19T14:20:30.121Z,3172.00
2023-02-19T14:21:35.131Z,3156.00
2023-02-19T14:22:30.120Z,3280.00
2023-02-19T14:23:30.078Z,3484.00
2023-02-19T14:24:30.083Z,3680.00
2023-02-19T14:25:30.069Z,3816.00
2023-02-19T14:26:30.059Z,3412.00
2023-02-19T14:27:30.064Z,3124.00
2023-02-19T14:28:30.187Z,3172.00
2023-02-19T14:29:30.016Z,3116.00
2023-02-19T14:30:30.043Z,2872.00
2023-02-19T14:31:30.110Z,2600.00
2023-02-19T14:32:35.029Z,2408.00
2023-02-19T14:33:29.965Z,2328.00
2023-02-19T14:34:29.959Z,2260.00
2023-02-19T14:35:30.192Z,2196.00
2023-02-19T14:36:30.915Z,2112.00
2023-02-19T14:37:29.958Z,2124.00
2023-02-19T14:38:29.936Z,2380.00
2023-02-19T14:39:29.908Z,2616.00
2023-02-19T14:40:29.897Z,2772.00
2023-02-19T14:41:30.016Z,2792.00
2023-02-19T14:42:29.877Z,2928.00
2023-02-19T14:43:35.372Z,2992.00
2023-02-19T14:44:29.878Z,2896.00
2023-02-19T14:45:29.886Z,3116.00
2023-02-19T14:46:29.965Z,3180.00
2023-02-19T14:47:29.824Z,3080.00
2023-02-19T14:48:30.303Z,2904.00
2023-02-19T14:49:29.813Z,2760.00
2023-02-19T14:50:29.885Z,2720.00
2023-02-19T14:51:29.773Z,2808.00
2023-02-19T14:52:29.771Z,2916.00
2023-02-19T14:53:29.808Z,2944.00
2023-02-19T14:54:34.767Z,3012.00
2023-02-19T14:55:29.741Z,3012.00
2023-02-19T14:56:29.727Z,3060.00
2023-02-19T14:57:29.762Z,3012.00
2023-02-19T14:58:29.726Z,2984.00
2023-02-19T14:59:29.723Z,2916.00
2023-02-19T15:00:29.727Z,2856.00
2023-02-19T15:01:29.825Z,2696.00
2023-02-19T15:02:29.704Z,2548.00
2023-02-19T15:03:30.680Z,2692.00
2023-02-19T15:04:29.691Z,2736.00
2023-02-19T15:05:34.636Z,2740.00
2023-02-19T15:06:29.599Z,2740.00
2023-02-19T15:07:29.588Z,2624.00
2023-02-19T15:08:29.610Z,2116.00
2023-02-19T15:09:29.559Z,1628.00
2023-02-19T15:10:29.558Z,1736.00
2023-02-19T15:11:29.547Z,2084.00
2023-02-19T15:12:29.544Z,2204.00
2023-02-19T15:13:29.515Z,2184.00
2023-02-19T15:14:29.555Z,2332.00
2023-02-19T15:15:29.501Z,2336.00
2023-02-19T15:16:34.511Z,2116.00
2023-02-19T15:17:29.484Z,2336.00
2023-02-19T15:18:29.463Z,2520.00
2023-02-19T15:19:29.486Z,2476.00
2023-02-19T15:20:29.444Z,2460.00
2023-02-19T15:21:29.436Z,2436.00
2023-02-19T15:22:29.417Z,2408.00
2023-02-19T15:23:29.410Z,2416.00
2023-02-19T15:24:29.436Z,2296.00
2023-02-19T15:25:29.408Z,2264.00
2023-02-19T15:26:29.461Z,2184.00
2023-02-19T15:27:34.410Z,2080.00
2023-02-19T15:28:29.361Z,1940.00
2023-02-19T15:29:29.364Z,1792.00
2023-02-19T15:30:29.431Z,1852.00
2023-02-19T15:31:29.676Z,1916.00
2023-02-19T15:32:29.397Z,2088.00
2023-02-19T15:33:29.543Z,1964.00
2023-02-19T15:34:29.597Z,1592.00
2023-02-19T15:35:29.282Z,1348.00
2023-02-19T15:36:29.340Z,1268.00
2023-02-19T15:37:29.267Z,888.00
2023-02-19T15:38:34.511Z,708.00
2023-02-19T15:39:29.255Z,892.00
2023-02-19T15:40:29.220Z,884.00
2023-02-19T15:41:29.243Z,672.00
2023-02-19T15:42:29.199Z,508.00
2023-02-19T15:43:29.195Z,736.00
2023-02-19T15:44:29.215Z,880.00
2023-02-19T15:45:29.180Z,920.00
2023-02-19T15:46:29.174Z,900.00
2023-02-19T15:47:29.830Z,928.00
2023-02-19T15:48:29.131Z,968.00
2023-02-19T15:49:34.366Z,952.00
2023-02-19T15:50:29.160Z,968.00
2023-02-19T15:51:29.134Z,988.00
2023-02-19T15:52:29.092Z,1020.00
2023-02-19T15:53:29.088Z,1072.00
2023-02-19T15:54:29.095Z,1100.00
2023-02-19T15:55:29.057Z,1092.00
2023-02-19T15:56:29.055Z,1072.00
2023-02-19T15:57:29.034Z,1036.00
2023-02-19T15:58:29.020Z,960.00
2023-02-19T15:59:29.048Z,876.00
2023-02-19T16:00:34.089Z,852.00
2023-02-19T16:01:29.011Z,808.00
2023-02-19T16:02:28.994Z,756.00
2023-02-19T16:03:28.962Z,692.00
2023-02-19T16:04:28.954Z,628.00
2023-02-19T16:05:28.974Z,584.00
2023-02-19T16:06:28.944Z,560.00
2023-02-19T16:07:28.932Z,520.00
2023-02-19T16:08:30.863Z,484.00
2023-02-19T16:09:28.897Z,460.00
2023-02-19T16:10:28.907Z,456.00
2023-02-19T16:11:33.894Z,460.00
2023-02-19T16:12:28.869Z,464.00
2023-02-19T16:13:28.849Z,452.00
2023-02-19T16:14:28.848Z,428.00
2023-02-19T16:15:28.850Z,420.00
2023-02-19T16:16:28.849Z,420.00
2023-02-19T16:17:28.817Z,440.00
2023-02-19T16:18:28.800Z,440.00
2023-02-19T16:19:28.811Z,432.00
2023-02-19T16:20:28.802Z,432.00
2023-02-19T16:21:28.759Z,416.00
2023-02-19T16:22:33.792Z,408.00
2023-02-19T16:23:28.748Z,396.00
2023-02-19T16:24:28.730Z,376.00
2023-02-19T16:25:28.765Z,348.00
2023-02-19T16:26:28.737Z,328.00
2023-02-19T16:27:28.746Z,308.00
2023-02-19T16:28:28.689Z,296.00
2023-02-19T16:29:28.683Z,284.00
2023-02-19T16:30:28.727Z,276.00
2023-02-19T16:31:28.767Z,260.00
2023-02-19T16:32:28.777Z,252.00
2023-02-19T16:33:33.652Z,244.00
2023-02-19T16:34:28.621Z,228.00
2023-02-19T16:35:28.626Z,216.00
2023-02-19T16:36:28.603Z,204.00
2023-02-19T16:37:28.584Z,192.00
2023-02-19T16:38:28.587Z,180.00
2023-02-19T16:39:28.576Z,168.00
2023-02-19T16:40:28.555Z,156.00
2023-02-19T16:41:28.567Z,144.00
2023-02-19T16:42:28.526Z,132.00
2023-02-19T16:43:28.524Z,128.00
2023-02-19T16:44:33.589Z,116.00
2023-02-19T16:45:28.575Z,108.00
2023-02-19T16:46:28.506Z,100.00
2023-02-19T16:47:28.468Z,92.00
2023-02-19T16:48:28.467Z,88.00
2023-02-19T16:49:28.453Z,84.00
2023-02-19T16:50:28.443Z,76.00
2023-02-19T16:51:28.439Z,68.00
2023-02-19T16:52:28.426Z,56.00
2023-02-19T16:53:28.404Z,48.00
2023-02-19T16:54:28.398Z,40.00
2023-02-19T16:55:33.403Z,36.00
2023-02-19T16:56:28.379Z,32.00
2023-02-19T16:57:28.356Z,32.00
2023-02-19T16:58:28.378Z,28.00
2023-02-19T16:59:28.385Z,24.00
2023-02-19T17:00:28.377Z,20.00
2023-02-19T17:01:28.421Z,16.00
2023-02-19T17:02:28.302Z,16.00
2023-02-19T17:03:28.291Z,12.00
2023-02-19T17:04:28.281Z,12.00
2023-02-19T17:05:28.300Z,8.00
2023-02-19T17:06:33.308Z,8.00
2023-02-19T17:07:28.243Z,4.00
2023-02-19T17:08:28.250Z,4.00
2023-02-19T17:09:28.225Z,4.00
2023-02-19T17:10:28.222Z,0.00
2023-02-19T17:11:28.232Z,4.00
2023-02-19T17:12:28.194Z,4.00
2023-02-19T17:13:28.184Z,4.00
2023-02-19T17:14:28.169Z,0.00
2023-02-19T17:15:28.165Z,0.00
2023-02-19T17:16:28.168Z,0.00
2023-02-19T17:17:33.155Z,0.00
2023-02-19T17:18:28.127Z,0.00